createdAt,value
2022-07-26T00:02:58.948Z,18.31
2022-07-26T00:07:02.143Z,18.30
2022-07-26T00:11:07.239Z,18.32
2022-07-26T00:15:12.656Z,18.25
2022-07-26T00:19:15.753Z,18.24
2022-07-26T00:23:19.520Z,18.10
2022-07-26T00:27:22.621Z,18.05
2022-07-26T00:31:27.097Z,18.03
2022-07-26T00:35:30.130Z,17.94
2022-07-26T00:39:33.276Z,17.94
2022-07-26T00:43:36.833Z,17.99
2022-07-26T00:47:41.835Z,17.86
2022-07-26T00:51:46.577Z,17.82
2022-07-26T00:55:50.172Z,17.68
2022-07-26T00:59:53.495Z,17.64
2022-07-26T01:03:58.291Z,17.55
2022-07-26T01:08:01.351Z,17.52
2022-07-26T01:12:04.768Z,17.49
2022-07-26T01:16:08.374Z,17.48
2022-07-26T01:20:14.420Z,17.42
2022-07-26T01:24:19.559Z,17.50
2022-07-26T01:28:22.597Z,17.50
2022-07-26T01:32:25.623Z,17.55
2022-07-26T01:36:28.724Z,17.56
2022-07-26T01:40:33.410Z,17.56
2022-07-26T01:44:37.312Z,17.53
2022-07-26T01:48:41.213Z,17.50
2022-07-26T01:52:44.329Z,17.46
2022-07-26T01:56:48.799Z,17.55
2022-07-26T02:00:51.919Z,17.55
2022-07-26T02:05:01.495Z,17.54
2022-07-26T02:09:06.458Z,17.51
2022-07-26T02:13:16.061Z,17.44
2022-07-26T02:17:19.801Z,17.47
2022-07-26T02:21:22.920Z,17.38
2022-07-26T02:25:26.222Z,17.26
2022-07-26T02:29:31.760Z,17.15
2022-07-26T02:33:34.820Z,17.13
2022-07-26T02:37:43.547Z,17.21
2022-07-26T02:41:46.903Z,17.32
2022-07-26T02:46:01.237Z,17.37
2022-07-26T02:50:05.574Z,17.36
2022-07-26T02:54:08.952Z,17.27
2022-07-26T02:58:12.341Z,17.18
2022-07-26T03:02:17.194Z,17.18
2022-07-26T03:06:21.149Z,17.14
2022-07-26T03:10:24.216Z,17.11
2022-07-26T03:14:29.814Z,17.11
2022-07-26T03:18:34.480Z,17.11
2022-07-26T03:22:37.459Z,17.07
2022-07-26T03:26:40.576Z,17.06
2022-07-26T03:30:43.750Z,17.05
2022-07-26T03:34:48.269Z,17.04
2022-07-26T03:38:51.355Z,17.03
2022-07-26T03:42:54.465Z,17.02
2022-07-26T03:46:57.715Z,17.02
2022-07-26T03:51:02.636Z,17.00
2022-07-26T03:55:26.630Z,17.02
2022-07-26T03:59:29.710Z,17.05
2022-07-26T04:03:32.743Z,17.04
2022-07-26T04:07:43.183Z,17.02
2022-07-26T04:11:55.651Z,17.05
2022-07-26T04:15:58.789Z,17.10
2022-07-26T04:20:01.841Z,17.08
2022-07-26T04:24:07.217Z,17.09
2022-07-26T04:28:10.856Z,17.11
2022-07-26T04:32:13.972Z,17.17
2022-07-26T04:36:17.124Z,17.18
2022-07-26T04:40:23.652Z,17.21
2022-07-26T04:44:26.931Z,17.26
2022-07-26T04:48:30.289Z,17.27
2022-07-26T04:52:33.965Z,17.32
2022-07-26T04:56:38.622Z,17.34
2022-07-26T05:01:09.390Z,17.36
2022-07-26T05:05:05.302Z,17.36
2022-07-26T05:09:09.036Z,17.39
2022-07-26T05:13:13.522Z,17.46
2022-07-26T05:17:17.840Z,17.49
2022-07-26T05:21:21.129Z,17.47
2022-07-26T05:25:24.345Z,17.51
2022-07-26T05:29:29.039Z,17.52
2022-07-26T05:33:32.296Z,17.53
2022-07-26T05:37:35.879Z,17.55
2022-07-26T05:41:38.974Z,17.54
2022-07-26T05:45:43.684Z,17.57
2022-07-26T05:49:46.717Z,17.62
2022-07-26T05:53:49.781Z,17.63
2022-07-26T05:57:52.851Z,17.64
2022-07-26T06:01:57.413Z,17.65
2022-07-26T06:06:00.894Z,17.76
2022-07-26T06:10:04.666Z,17.83
2022-07-26T06:14:07.998Z,17.95
2022-07-26T06:18:12.741Z,17.97
2022-07-26T06:22:15.877Z,18.02
2022-07-26T06:26:18.953Z,18.07
2022-07-26T06:30:22.232Z,18.06
2022-07-26T06:34:26.766Z,18.22
2022-07-26T06:38:29.943Z,18.25
2022-07-26T06:42:33.299Z,18.26
2022-07-26T06:46:36.627Z,18.18
2022-07-26T06:50:41.262Z,18.28
2022-07-26T06:54:44.663Z,18.28
2022-07-26T06:58:48.072Z,18.31
2022-07-26T07:02:51.076Z,18.31
2022-07-26T07:06:55.619Z,18.49
2022-07-26T07:11:00.559Z,18.71
2022-07-26T07:15:05.716Z,18.97
2022-07-26T07:19:08.783Z,18.96
2022-07-26T07:23:15.567Z,18.88
2022-07-26T07:27:19.701Z,18.96
2022-07-26T07:31:30.208Z,19.27
2022-07-26T07:35:33.822Z,19.27
2022-07-26T07:39:38.459Z,19.59
2022-07-26T07:43:41.982Z,19.88
2022-07-26T07:47:45.068Z,20.11
2022-07-26T07:51:48.299Z,20.75
2022-07-26T07:55:55.220Z,20.78
2022-07-26T07:59:58.525Z,20.63
2022-07-26T08:04:01.841Z,20.59
2022-07-26T08:08:05.235Z,20.31
2022-07-26T08:12:12.932Z,20.49
2022-07-26T08:16:16.287Z,20.44
2022-07-26T08:20:19.529Z,20.18
2022-07-26T08:24:26.012Z,20.41
2022-07-26T08:28:47.890Z,20.65
2022-07-26T08:32:51.383Z,20.91
2022-07-26T08:37:15.982Z,21.37
2022-07-26T08:41:18.616Z,22.74
2022-07-26T08:45:27.919Z,22.86
2022-07-26T08:49:31.083Z,22.62
2022-07-26T08:53:35.125Z,22.88
2022-07-26T08:57:38.222Z,23.53
2022-07-26T09:01:54.454Z,23.07
2022-07-26T09:06:00.724Z,21.94
2022-07-26T09:10:07.616Z,21.45
2022-07-26T09:14:10.823Z,21.33
2022-07-26T09:18:28.765Z,21.30
2022-07-26T09:22:31.880Z,21.17
2022-07-26T09:26:35.031Z,21.85
2022-07-26T09:30:38.257Z,22.18
2022-07-26T09:34:51.965Z,21.29
2022-07-26T09:38:58.630Z,21.29
2022-07-26T09:43:03.638Z,20.98
2022-07-26T09:47:06.928Z,20.60
2022-07-26T09:51:12.214Z,20.16
2022-07-26T09:55:16.670Z,20.56
2022-07-26T09:59:21.921Z,21.04
2022-07-26T10:03:24.997Z,21.45
2022-07-26T10:07:29.640Z,21.96
2022-07-26T10:11:39.901Z,23.05
2022-07-26T10:15:46.705Z,23.51
2022-07-26T10:19:50.296Z,23.03
2022-07-26T10:23:58.040Z,22.20
2022-07-26T10:28:01.187Z,21.43
2022-07-26T10:32:15.832Z,21.05
2022-07-26T10:36:31.105Z,21.17
2022-07-26T10:40:35.942Z,21.18
2022-07-26T10:44:41.970Z,21.23
2022-07-26T10:48:56.953Z,21.35
2022-07-26T10:53:00.381Z,21.57
2022-07-26T10:57:05.039Z,22.05
2022-07-26T11:01:08.257Z,22.28
2022-07-26T11:05:16.542Z,23.52
2022-07-26T11:09:21.167Z,24.94
2022-07-26T11:13:25.934Z,22.95
2022-07-26T11:17:30.809Z,22.19
2022-07-26T11:21:33.923Z,21.47
2022-07-26T11:25:37.025Z,21.30
2022-07-26T11:29:42.561Z,20.92
2022-07-26T11:33:53.084Z,20.54
2022-07-26T11:38:07.790Z,20.40
2022-07-26T11:42:16.291Z,20.48
2022-07-26T11:46:22.394Z,20.18
2022-07-26T11:50:25.649Z,20.08
2022-07-26T11:54:30.743Z,20.49
2022-07-26T11:58:34.337Z,21.83
2022-07-26T12:02:38.994Z,23.29
2022-07-26T12:06:42.143Z,23.23
2022-07-26T12:10:45.287Z,23.90
2022-07-26T12:14:57.649Z,25.44
2022-07-26T12:19:02.174Z,26.35
2022-07-26T12:23:06.143Z,25.10
2022-07-26T12:27:11.962Z,25.06
2022-07-26T12:31:34.331Z,24.72
2022-07-26T12:35:39.313Z,25.13
2022-07-26T12:39:43.155Z,23.57
2022-07-26T12:43:49.290Z,23.28
2022-07-26T12:47:54.659Z,21.62
2022-07-26T12:51:59.068Z,21.66
2022-07-26T12:56:02.309Z,22.24
2022-07-26T13:00:07.410Z,24.03
2022-07-26T13:04:11.364Z,24.16
2022-07-26T13:08:46.331Z,24.65
2022-07-26T13:12:51.048Z,24.57
2022-07-26T13:16:55.350Z,23.02
2022-07-26T13:21:35.149Z,24.05
2022-07-26T13:25:47.361Z,23.57
2022-07-26T13:29:57.453Z,24.23
2022-07-26T13:34:02.157Z,23.56
2022-07-26T13:38:06.098Z,22.55
2022-07-26T13:42:14.566Z,23.19
2022-07-26T13:46:20.390Z,24.28
2022-07-26T13:50:29.434Z,24.69
2022-07-26T13:54:39.293Z,24.10
2022-07-26T13:58:44.576Z,22.93
2022-07-26T14:02:48.257Z,22.41
2022-07-26T14:06:55.516Z,22.27
2022-07-26T14:11:00.944Z,22.27
2022-07-26T14:15:12.992Z,23.09
2022-07-26T14:19:21.534Z,23.38
2022-07-26T14:23:25.908Z,23.10
2022-07-26T14:27:30.040Z,21.76
2022-07-26T14:31:34.959Z,22.18
2022-07-26T14:35:37.997Z,22.99
2022-07-26T14:39:41.340Z,23.33
2022-07-26T14:43:45.399Z,22.62
2022-07-26T14:47:50.082Z,22.44
2022-07-26T14:51:54.169Z,23.57
2022-07-26T14:55:57.388Z,23.33
2022-07-26T15:00:00.448Z,22.80
2022-07-26T15:04:05.514Z,22.45
2022-07-26T15:08:08.622Z,22.47
2022-07-26T15:12:11.766Z,22.78
2022-07-26T15:16:15.099Z,22.48
2022-07-26T15:20:19.717Z,22.11
2022-07-26T15:24:24.446Z,22.74
2022-07-26T15:28:27.621Z,23.09
2022-07-26T15:32:30.897Z,22.88
2022-07-26T15:36:35.910Z,22.35
2022-07-26T15:40:39.585Z,22.06
2022-07-26T15:44:42.674Z,22.09
2022-07-26T15:48:47.077Z,21.56
2022-07-26T15:52:52.297Z,21.46
2022-07-26T15:56:55.668Z,21.46
2022-07-26T16:00:58.792Z,21.95
2022-07-26T16:05:02.241Z,22.96
2022-07-26T16:09:22.923Z,22.28
2022-07-26T16:13:26.171Z,21.66
2022-07-26T16:17:29.390Z,21.73
2022-07-26T16:21:33.360Z,21.43
2022-07-26T16:25:38.038Z,21.70
2022-07-26T16:29:41.146Z,21.81
2022-07-26T16:33:46.086Z,20.87
2022-07-26T16:37:50.335Z,21.08
2022-07-26T16:41:54.904Z,20.78
2022-07-26T16:45:58.092Z,20.79
2022-07-26T16:50:01.184Z,20.11
2022-07-26T16:54:04.698Z,20.12
2022-07-26T16:58:09.235Z,19.76
2022-07-26T17:02:12.634Z,19.42
2022-07-26T17:06:15.872Z,19.65
2022-07-26T17:10:20.702Z,20.09
2022-07-26T17:14:25.231Z,20.02
2022-07-26T17:18:28.566Z,20.31
2022-07-26T17:22:31.787Z,20.35
2022-07-26T17:26:36.372Z,20.05
2022-07-26T17:30:41.819Z,19.68
2022-07-26T17:34:44.948Z,19.40
2022-07-26T17:38:48.484Z,19.59
2022-07-26T17:42:52.318Z,19.61
2022-07-26T17:46:58.722Z,19.45
2022-07-26T17:51:01.967Z,19.39
2022-07-26T17:55:05.552Z,19.11
2022-07-26T17:59:09.071Z,18.95
2022-07-26T18:03:13.637Z,18.92
2022-07-26T18:07:16.686Z,18.68
2022-07-26T18:11:19.795Z,18.33
2022-07-26T18:15:23.138Z,18.31
2022-07-26T18:19:27.663Z,18.26
2022-07-26T18:23:30.742Z,18.32
2022-07-26T18:27:33.878Z,18.46
2022-07-26T18:31:37.035Z,18.17
2022-07-26T18:35:41.998Z,18.10
2022-07-26T18:39:45.215Z,18.22
2022-07-26T18:43:48.301Z,17.93
2022-07-26T18:47:51.383Z,17.89
2022-07-26T18:51:59.862Z,17.91
2022-07-26T18:56:07.622Z,17.81
2022-07-26T19:00:12.993Z,17.74
2022-07-26T19:04:17.120Z,17.67
2022-07-26T19:08:23.178Z,17.61
2022-07-26T19:12:26.395Z,17.62
2022-07-26T19:16:29.690Z,17.55
2022-07-26T19:20:34.007Z,17.38
2022-07-26T19:24:39.941Z,17.38
2022-07-26T19:28:43.128Z,17.34
2022-07-26T19:32:46.497Z,17.38
2022-07-26T19:36:51.103Z,17.28
2022-07-26T19:40:55.863Z,17.28
2022-07-26T19:44:59.276Z,17.32
2022-07-26T19:49:04.982Z,17.30
2022-07-26T19:53:08.128Z,17.28
2022-07-26T19:57:12.568Z,17.17
2022-07-26T20:01:15.897Z,17.04
2022-07-26T20:05:19.028Z,17.14
2022-07-26T20:09:22.179Z,17.07
2022-07-26T20:13:26.585Z,17.02
2022-07-26T20:17:33.468Z,17.00
2022-07-26T20:21:36.587Z,17.09
2022-07-26T20:25:39.748Z,17.20
2022-07-26T20:29:44.323Z,17.20
2022-07-26T20:33:47.466Z,17.17
2022-07-26T20:37:50.627Z,17.22
2022-07-26T20:41:53.736Z,17.12
2022-07-26T20:45:59.922Z,17.27
2022-07-26T20:50:05.382Z,17.05
2022-07-26T20:54:08.656Z,17.01
2022-07-26T20:58:11.786Z,16.97
2022-07-26T21:02:16.640Z,16.91
2022-07-26T21:06:19.864Z,16.86
2022-07-26T21:10:23.024Z,16.83
2022-07-26T21:14:26.290Z,16.79
2022-07-26T21:18:31.357Z,16.79
2022-07-26T21:22:34.594Z,16.85
2022-07-26T21:26:37.781Z,16.80
2022-07-26T21:30:40.942Z,16.83
2022-07-26T21:34:45.458Z,16.73
2022-07-26T21:38:48.701Z,16.69
2022-07-26T21:42:51.835Z,16.69
2022-07-26T21:46:55.373Z,16.61
2022-07-26T21:50:59.903Z,16.51
2022-07-26T21:55:02.923Z,16.46
2022-07-26T21:59:05.962Z,16.35
2022-07-26T22:03:10.235Z,16.32
2022-07-26T22:07:14.710Z,16.23
2022-07-26T22:11:17.929Z,16.25
2022-07-26T22:15:22.165Z,16.21
2022-07-26T22:19:25.216Z,16.19
2022-07-26T22:23:31.010Z,16.12
2022-07-26T22:27:34.209Z,16.17
2022-07-26T22:31:37.385Z,16.10
2022-07-26T22:35:40.512Z,16.11
2022-07-26T22:39:45.216Z,16.11
2022-07-26T22:43:49.419Z,16.07
2022-07-26T22:47:56.911Z,15.98
2022-07-26T22:51:59.967Z,15.94
2022-07-26T22:56:04.356Z,15.92
2022-07-26T23:00:09.806Z,15.87
2022-07-26T23:04:12.865Z,15.90
2022-07-26T23:08:45.886Z,15.93
2022-07-26T23:12:41.494Z,15.87
2022-07-26T23:16:45.468Z,15.83
2022-07-26T23:20:48.537Z,15.81
2022-07-26T23:24:51.729Z,15.76
2022-07-26T23:28:56.192Z,15.68
2022-07-26T23:32:59.857Z,15.69
2022-07-26T23:37:03.145Z,15.61
2022-07-26T23:41:06.175Z,15.59
2022-07-26T23:45:12.062Z,15.58
2022-07-26T23:49:15.624Z,15.53
2022-07-26T23:53:19.234Z,15.58
2022-07-26T23:57:29.938Z,15.62
